createdAt,value
2019-03-30T00:01:00.964Z,26.60
2019-03-30T00:03:30.993Z,31.80
2019-03-30T00:06:01.044Z,30.97
2019-03-30T00:08:31.049Z,30.53
2019-03-30T00:11:01.207Z,28.67
2019-03-30T00:13:31.272Z,28.63
2019-03-30T00:16:01.453Z,30.70
2019-03-30T00:18:31.654Z,28.20
2019-03-30T00:21:03.483Z,30.07
2019-03-30T00:23:33.509Z,28.37
2019-03-30T00:26:03.602Z,30.03
2019-03-30T00:28:33.637Z,29.83
2019-03-30T00:31:03.666Z,30.00
2019-03-30T00:33:33.708Z,32.00
2019-03-30T00:36:03.732Z,29.83
2019-03-30T00:38:33.745Z,34.60
2019-03-30T00:41:03.839Z,32.73
2019-03-30T00:43:33.879Z,33.83
2019-03-30T00:46:03.888Z,29.77
2019-03-30T00:48:33.936Z,28.73
2019-03-30T00:51:03.968Z,31.00
2019-03-30T00:53:34.000Z,32.27
2019-03-30T00:56:03.994Z,26.80
2019-03-30T00:58:34.011Z,28.07
2019-03-30T01:01:04.033Z,28.40
2019-03-30T01:03:34.058Z,28.70
2019-03-30T01:06:04.091Z,29.40
2019-03-30T01:08:34.185Z,31.17
2019-03-30T01:11:04.245Z,32.07
2019-03-30T01:13:34.278Z,30.67
2019-03-30T01:16:04.463Z,27.40
2019-03-30T01:18:34.511Z,30.17
2019-03-30T01:21:04.689Z,30.83
2019-03-30T01:23:34.751Z,29.87
2019-03-30T01:26:04.744Z,26.10
2019-03-30T01:28:34.768Z,28.73
2019-03-30T01:31:04.897Z,28.30
2019-03-30T01:33:34.986Z,26.27
2019-03-30T01:36:05.035Z,28.93
2019-03-30T01:38:35.089Z,28.20
2019-03-30T01:41:05.105Z,27.03
2019-03-30T01:43:35.115Z,26.57
2019-03-30T01:46:05.186Z,30.10
2019-03-30T01:48:35.200Z,26.43
2019-03-30T01:51:05.230Z,29.10
2019-03-30T01:53:35.264Z,30.90
2019-03-30T01:56:05.718Z,30.73
2019-03-30T01:58:35.789Z,29.97
2019-03-30T02:01:05.939Z,32.93
2019-03-30T02:03:35.976Z,31.87
2019-03-30T02:06:06.205Z,35.50
2019-03-30T02:08:36.252Z,34.50
2019-03-30T02:11:06.233Z,36.33
2019-03-30T02:13:36.298Z,33.77
2019-03-30T02:16:06.378Z,35.30
2019-03-30T02:18:36.410Z,35.57
2019-03-30T02:21:06.417Z,41.43
2019-03-30T02:23:36.491Z,43.10
2019-03-30T02:26:06.488Z,40.43
2019-03-30T02:28:36.570Z,43.37
2019-03-30T02:31:06.933Z,39.87
2019-03-30T02:33:36.945Z,43.17
2019-03-30T02:36:07.033Z,44.03
2019-03-30T02:38:37.129Z,40.90
2019-03-30T02:41:07.186Z,43.13
2019-03-30T02:43:37.204Z,44.03
2019-03-30T02:46:07.328Z,44.87
2019-03-30T02:48:37.308Z,40.40
2019-03-30T02:51:07.373Z,45.37
2019-03-30T02:53:37.377Z,41.47
2019-03-30T02:56:07.389Z,38.13
2019-03-30T02:58:37.414Z,43.60
2019-03-30T03:01:07.483Z,37.07
2019-03-30T03:03:37.486Z,38.43
2019-03-30T03:06:07.524Z,46.73
2019-03-30T03:08:37.567Z,40.93
2019-03-30T03:11:07.598Z,38.93
2019-03-30T03:13:37.639Z,43.80
2019-03-30T03:16:07.718Z,43.73
2019-03-30T03:18:37.776Z,38.93
2019-03-30T03:21:08.765Z,46.27
2019-03-30T03:23:39.105Z,41.60
2019-03-30T03:26:09.104Z,41.10
2019-03-30T03:28:39.138Z,38.37
2019-03-30T03:31:09.211Z,40.27
2019-03-30T03:33:39.275Z,41.50
2019-03-30T03:36:09.302Z,43.07
2019-03-30T03:38:39.302Z,37.10
2019-03-30T03:41:09.413Z,36.57
2019-03-30T03:43:39.418Z,34.33
2019-03-30T03:46:09.431Z,32.83
2019-03-30T03:48:39.468Z,29.57
2019-03-30T03:51:24.897Z,30.17
2019-03-30T03:53:41.848Z,28.63
2019-03-30T03:56:14.835Z,30.93
2019-03-30T03:58:46.516Z,34.57
2019-03-30T04:01:18.607Z,31.20
2019-03-30T04:03:50.559Z,33.70
2019-03-30T04:06:23.078Z,32.83
2019-03-30T04:08:56.755Z,32.30
2019-03-30T04:11:29.299Z,28.40
2019-03-30T04:14:01.782Z,31.83
2019-03-30T04:16:31.825Z,30.23
2019-03-30T04:19:01.971Z,27.07
2019-03-30T04:21:43.713Z,29.87
2019-03-30T04:24:03.762Z,27.03
2019-03-30T04:26:33.799Z,26.73
2019-03-30T04:29:03.836Z,32.93
2019-03-30T04:31:33.831Z,27.97
2019-03-30T04:34:03.863Z,28.00
2019-03-30T04:36:33.926Z,30.27
2019-03-30T04:39:05.012Z,28.93
2019-03-30T04:41:35.063Z,24.87
2019-03-30T04:44:05.113Z,32.63
2019-03-30T04:46:35.175Z,24.27
2019-03-30T04:49:05.207Z,26.60
2019-03-30T04:51:35.227Z,28.70
2019-03-30T04:54:05.262Z,28.10
2019-03-30T04:56:35.339Z,27.87
2019-03-30T04:59:05.375Z,27.47
2019-03-30T05:01:35.372Z,28.40
2019-03-30T05:04:05.408Z,22.23
2019-03-30T05:06:35.441Z,26.87
2019-03-30T05:09:06.600Z,22.97
2019-03-30T05:11:36.731Z,25.73
2019-03-30T05:14:06.769Z,29.47
2019-03-30T05:16:36.849Z,21.80
2019-03-30T05:19:06.920Z,24.77
2019-03-30T05:21:36.989Z,26.70
2019-03-30T05:24:07.052Z,26.77
2019-03-30T05:26:37.081Z,25.13
2019-03-30T05:29:07.091Z,24.90
2019-03-30T05:31:37.170Z,24.43
2019-03-30T05:34:07.218Z,22.83
2019-03-30T05:36:37.226Z,24.50
2019-03-30T05:39:07.987Z,26.57
2019-03-30T05:41:38.132Z,28.57
2019-03-30T05:44:08.166Z,25.60
2019-03-30T05:46:38.210Z,23.43
2019-03-30T05:49:08.283Z,23.03
2019-03-30T05:51:40.653Z,24.53
2019-03-30T05:54:10.713Z,24.67
2019-03-30T05:56:40.718Z,23.50
2019-03-30T05:59:10.712Z,24.57
2019-03-30T06:01:40.738Z,24.47
2019-03-30T06:04:10.761Z,24.90
2019-03-30T06:06:40.816Z,28.87
2019-03-30T06:09:10.907Z,24.13
2019-03-30T06:11:40.973Z,25.73
2019-03-30T06:14:10.986Z,21.10
2019-03-30T06:16:41.090Z,21.17
2019-03-30T06:19:11.191Z,20.47
2019-03-30T06:21:41.240Z,21.73
2019-03-30T06:24:13.307Z,21.83
2019-03-30T06:26:43.358Z,25.67
2019-03-30T06:29:13.407Z,21.37
2019-03-30T06:31:46.640Z,26.20
2019-03-30T06:34:15.222Z,22.27
2019-03-30T06:36:46.923Z,20.43
2019-03-30T06:39:17.009Z,22.87
2019-03-30T06:41:47.105Z,20.13
2019-03-30T06:44:17.151Z,23.67
2019-03-30T06:46:50.467Z,26.07
2019-03-30T06:49:20.487Z,32.90
2019-03-30T06:51:50.471Z,24.33
2019-03-30T06:54:20.499Z,28.63
2019-03-30T06:56:50.505Z,29.80
2019-03-30T06:59:20.527Z,29.07
2019-03-30T07:01:50.798Z,31.33
2019-03-30T07:04:20.803Z,32.70
2019-03-30T07:06:52.098Z,29.17
2019-03-30T07:09:25.345Z,25.37
2019-03-30T07:11:58.133Z,25.57
2019-03-30T07:14:31.046Z,19.53
2019-03-30T07:17:03.844Z,24.07
2019-03-30T07:19:35.323Z,18.60
2019-03-30T07:22:08.385Z,15.77
2019-03-30T07:24:38.432Z,17.03
2019-03-30T07:27:08.552Z,18.67
2019-03-30T07:29:38.603Z,17.63
2019-03-30T07:32:08.605Z,19.07
2019-03-30T07:34:41.598Z,19.30
2019-03-30T07:37:10.390Z,17.00
2019-03-30T07:39:40.489Z,19.47
2019-03-30T07:42:10.541Z,15.63
2019-03-30T07:44:40.577Z,16.67
2019-03-30T07:47:10.672Z,16.23
2019-03-30T07:49:40.854Z,15.83
2019-03-30T07:52:10.964Z,16.60
2019-03-30T07:54:43.054Z,16.00
2019-03-30T07:57:17.422Z,18.63
2019-03-30T07:59:46.872Z,18.83
2019-03-30T08:02:16.891Z,16.07
2019-03-30T08:04:47.101Z,17.07
2019-03-30T08:07:17.131Z,15.40
2019-03-30T08:09:47.291Z,15.47
2019-03-30T08:12:17.366Z,14.77
2019-03-30T08:14:47.421Z,16.40
2019-03-30T08:17:17.509Z,19.00
2019-03-30T08:19:50.288Z,15.33
2019-03-30T08:22:19.556Z,16.10
2019-03-30T08:24:49.648Z,18.13
2019-03-30T08:27:19.643Z,15.97
2019-03-30T08:29:49.668Z,18.00
2019-03-30T08:32:20.057Z,17.63
2019-03-30T08:34:50.100Z,17.83
2019-03-30T08:37:21.831Z,16.50
2019-03-30T08:39:52.061Z,17.10
2019-03-30T08:42:22.093Z,16.00
2019-03-30T08:44:52.235Z,17.53
2019-03-30T08:47:22.326Z,17.97
2019-03-30T08:49:52.512Z,18.13
2019-03-30T08:52:22.694Z,19.07
2019-03-30T08:54:52.852Z,14.63
2019-03-30T08:57:22.914Z,16.07
2019-03-30T08:59:53.098Z,15.43
2019-03-30T09:02:23.144Z,16.50
2019-03-30T09:04:53.181Z,14.63
2019-03-30T09:07:23.224Z,14.57
2019-03-30T09:09:53.273Z,14.27
2019-03-30T09:12:23.286Z,14.93
2019-03-30T09:14:53.356Z,17.20
2019-03-30T09:17:23.483Z,14.73
2019-03-30T09:19:53.547Z,15.20
2019-03-30T09:22:23.634Z,15.00
2019-03-30T09:24:53.675Z,14.27
2019-03-30T09:27:23.823Z,18.13
2019-03-30T09:29:53.922Z,12.90
2019-03-30T09:32:23.958Z,13.40
2019-03-30T09:34:54.016Z,14.43
2019-03-30T09:37:24.089Z,13.23
2019-03-30T09:39:54.159Z,11.43
2019-03-30T09:42:24.194Z,11.20
2019-03-30T09:44:54.244Z,10.53
2019-03-30T09:47:24.254Z,11.37
2019-03-30T09:49:54.336Z,12.33
2019-03-30T09:52:24.434Z,11.40
2019-03-30T09:54:54.458Z,16.40
2019-03-30T09:57:24.527Z,12.20
2019-03-30T09:59:54.622Z,10.97
2019-03-30T10:02:24.639Z,11.90
2019-03-30T10:04:54.821Z,13.67
2019-03-30T10:07:24.996Z,13.53
2019-03-30T10:09:55.061Z,10.77
2019-03-30T10:12:25.111Z,10.20
2019-03-30T10:14:55.130Z,10.23
2019-03-30T10:17:25.210Z,11.20
2019-03-30T10:20:04.161Z,12.10
2019-03-30T10:22:27.643Z,10.00
2019-03-30T10:24:58.587Z,12.03
2019-03-30T10:27:28.766Z,10.53
2019-03-30T10:29:58.819Z,12.03
2019-03-30T10:32:28.892Z,12.93
2019-03-30T10:34:58.935Z,13.73
2019-03-30T10:37:28.992Z,12.93
2019-03-30T10:39:59.058Z,9.90
2019-03-30T10:42:29.035Z,14.50
2019-03-30T10:45:00.447Z,11.67
2019-03-30T10:47:30.504Z,11.43
2019-03-30T10:50:00.590Z,10.87
2019-03-30T10:52:30.648Z,10.17
2019-03-30T10:55:00.726Z,14.33
2019-03-30T10:57:30.786Z,12.03
2019-03-30T11:00:00.812Z,14.23
2019-03-30T11:02:30.864Z,14.40
2019-03-30T11:05:00.878Z,14.07
2019-03-30T11:07:30.931Z,13.60
2019-03-30T11:10:00.984Z,12.13
2019-03-30T11:12:31.027Z,12.33
2019-03-30T11:15:01.075Z,12.33
2019-03-30T11:17:31.135Z,12.63
2019-03-30T11:20:01.158Z,13.93
2019-03-30T11:22:31.181Z,13.37
2019-03-30T11:25:07.648Z,12.07
2019-03-30T11:27:33.026Z,11.60
2019-03-30T11:30:03.091Z,12.97
2019-03-30T11:32:33.137Z,11.73
2019-03-30T11:35:03.176Z,11.57
2019-03-30T11:37:33.264Z,10.93
2019-03-30T11:40:03.356Z,11.73
2019-03-30T11:42:33.426Z,12.30
2019-03-30T11:45:03.653Z,14.43
2019-03-30T11:47:33.838Z,11.47
2019-03-30T11:50:04.037Z,11.50
2019-03-30T11:52:34.087Z,11.83
2019-03-30T11:55:04.236Z,12.73
2019-03-30T11:57:34.466Z,12.00
2019-03-30T12:00:04.726Z,10.80
2019-03-30T12:02:34.850Z,13.43
2019-03-30T12:05:05.383Z,11.47
2019-03-30T12:07:35.516Z,11.93
2019-03-30T12:10:06.009Z,12.23
2019-03-30T12:12:37.502Z,11.77
2019-03-30T12:15:08.353Z,12.47
2019-03-30T12:17:41.015Z,13.60
2019-03-30T12:20:10.499Z,13.40
2019-03-30T12:22:40.550Z,13.87
2019-03-30T12:25:10.618Z,11.00
2019-03-30T12:27:40.711Z,12.03
2019-03-30T12:30:11.214Z,13.07
2019-03-30T12:32:41.307Z,12.47
2019-03-30T12:35:11.378Z,13.03
2019-03-30T12:37:41.408Z,12.80
2019-03-30T12:40:12.318Z,19.10
2019-03-30T12:42:42.439Z,15.77
2019-03-30T12:45:13.355Z,13.07
2019-03-30T12:47:43.397Z,12.13
2019-03-30T12:50:13.765Z,10.73
2019-03-30T12:52:43.814Z,12.00
2019-03-30T12:55:14.056Z,11.27
2019-03-30T12:57:44.128Z,14.70
2019-03-30T13:00:14.523Z,12.33
2019-03-30T13:02:44.644Z,12.30
2019-03-30T13:05:14.699Z,11.53
2019-03-30T13:07:44.744Z,12.20
2019-03-30T13:10:14.829Z,13.73
2019-03-30T13:12:44.845Z,11.43
2019-03-30T13:15:15.106Z,11.43
2019-03-30T13:17:45.134Z,12.37
2019-03-30T13:20:15.161Z,14.17
2019-03-30T13:22:45.222Z,11.13
2019-03-30T13:25:15.263Z,12.27
2019-03-30T13:27:45.306Z,11.63
2019-03-30T13:30:15.926Z,13.03
2019-03-30T13:32:45.975Z,12.03
2019-03-30T13:35:16.004Z,11.37
2019-03-30T13:37:46.065Z,10.23
2019-03-30T13:40:17.828Z,11.63
2019-03-30T13:42:47.817Z,11.17
2019-03-30T13:45:17.865Z,11.03
2019-03-30T13:47:47.897Z,14.67
2019-03-30T13:50:17.996Z,12.70
2019-03-30T13:52:48.033Z,13.23
2019-03-30T13:55:18.411Z,13.07
2019-03-30T13:57:48.473Z,10.80
2019-03-30T14:00:18.530Z,11.73
2019-03-30T14:02:49.997Z,11.83
2019-03-30T14:05:20.005Z,11.23
2019-03-30T14:07:50.064Z,11.70
2019-03-30T14:10:20.135Z,14.10
2019-03-30T14:12:50.294Z,12.07
2019-03-30T14:15:20.302Z,12.17
2019-03-30T14:17:50.355Z,13.17
2019-03-30T14:20:20.439Z,12.43
2019-03-30T14:22:50.521Z,10.70
2019-03-30T14:25:20.589Z,13.23
2019-03-30T14:27:50.555Z,11.33
2019-03-30T14:30:20.803Z,11.43
2019-03-30T14:32:50.845Z,15.53
2019-03-30T14:35:20.867Z,12.80
2019-03-30T14:37:50.905Z,14.37
2019-03-30T14:40:20.937Z,13.70
2019-03-30T14:42:50.958Z,11.60
2019-03-30T14:45:20.984Z,16.23
2019-03-30T14:47:51.028Z,12.60
2019-03-30T14:50:21.190Z,13.67
2019-03-30T14:52:51.344Z,16.90
2019-03-30T14:55:21.396Z,15.53
2019-03-30T14:57:51.419Z,16.27
2019-03-30T15:00:21.537Z,14.83
2019-03-30T15:02:51.683Z,15.97
2019-03-30T15:05:21.791Z,16.07
2019-03-30T15:07:51.920Z,15.57
2019-03-30T15:10:21.974Z,16.83
2019-03-30T15:12:52.037Z,13.50
2019-03-30T15:15:22.058Z,17.57
2019-03-30T15:17:52.087Z,14.10
2019-03-30T15:20:22.190Z,15.33
2019-03-30T15:22:52.321Z,12.37
2019-03-30T15:25:22.381Z,13.37
2019-03-30T15:27:52.421Z,20.87
2019-03-30T15:30:22.417Z,15.27
2019-03-30T15:32:52.544Z,14.70
2019-03-30T15:35:22.753Z,13.83
2019-03-30T15:37:52.887Z,16.00
2019-03-30T15:40:22.935Z,15.03
2019-03-30T15:42:53.047Z,15.30
2019-03-30T15:45:23.057Z,16.73
2019-03-30T15:47:53.130Z,14.47
2019-03-30T15:50:23.231Z,14.37
2019-03-30T15:52:55.384Z,13.87
2019-03-30T15:55:25.448Z,13.17
2019-03-30T15:57:55.599Z,13.90
2019-03-30T16:00:25.592Z,14.57
2019-03-30T16:02:55.668Z,15.70
2019-03-30T16:05:25.673Z,13.77
2019-03-30T16:07:55.746Z,16.03
2019-03-30T16:10:25.838Z,14.33
2019-03-30T16:12:55.888Z,14.47
2019-03-30T16:15:25.943Z,15.50
2019-03-30T16:17:55.994Z,14.47
2019-03-30T16:20:26.066Z,16.20
2019-03-30T16:22:56.137Z,14.23
2019-03-30T16:25:26.228Z,14.20
2019-03-30T16:27:56.514Z,15.63
2019-03-30T16:30:26.586Z,14.97
2019-03-30T16:32:56.659Z,17.43
2019-03-30T16:35:26.677Z,16.27
2019-03-30T16:37:56.752Z,16.07
2019-03-30T16:40:26.872Z,15.97
2019-03-30T16:42:56.979Z,16.00
2019-03-30T16:45:27.095Z,15.53
2019-03-30T16:47:57.102Z,15.90
2019-03-30T16:50:27.164Z,16.97
2019-03-30T16:52:57.266Z,16.27
2019-03-30T16:55:27.381Z,17.40
2019-03-30T16:57:57.572Z,17.03
2019-03-30T17:00:32.854Z,16.87
2019-03-30T17:03:03.585Z,15.57
2019-03-30T17:05:33.694Z,16.97
2019-03-30T17:08:03.861Z,17.17
2019-03-30T17:10:34.098Z,16.00
2019-03-30T17:13:04.209Z,16.17
2019-03-30T17:15:34.312Z,16.43
2019-03-30T17:18:04.509Z,21.87
2019-03-30T17:20:35.568Z,22.37
2019-03-30T17:23:05.688Z,18.73
2019-03-30T17:25:35.704Z,18.47
2019-03-30T17:28:07.058Z,17.10
2019-03-30T17:30:37.526Z,16.93
2019-03-30T17:33:07.711Z,16.30
2019-03-30T17:35:37.763Z,16.63
2019-03-30T17:38:07.818Z,16.63
2019-03-30T17:40:37.856Z,15.97
2019-03-30T17:43:08.043Z,17.93
2019-03-30T17:45:38.138Z,17.70
2019-03-30T17:48:08.261Z,19.57
2019-03-30T17:50:38.364Z,17.30
2019-03-30T17:53:08.522Z,16.23
2019-03-30T17:55:38.552Z,17.57
2019-03-30T17:58:13.430Z,19.93
2019-03-30T18:00:40.461Z,16.80
2019-03-30T18:03:10.567Z,16.53
2019-03-30T18:05:40.670Z,20.53
2019-03-30T18:08:10.676Z,19.90
2019-03-30T18:10:40.726Z,20.73
2019-03-30T18:13:10.770Z,17.87
2019-03-30T18:15:40.868Z,17.47
2019-03-30T18:18:11.414Z,19.20
2019-03-30T18:20:41.427Z,18.13
2019-03-30T18:23:11.506Z,19.63
2019-03-30T18:25:41.589Z,20.20
2019-03-30T18:28:11.724Z,17.97
2019-03-30T18:30:42.465Z,19.37
2019-03-30T18:33:12.535Z,23.50
2019-03-30T18:35:42.765Z,21.40
2019-03-30T18:38:13.383Z,19.30
2019-03-30T18:40:43.414Z,24.53
2019-03-30T18:43:13.632Z,22.80
2019-03-30T18:45:43.698Z,20.57
2019-03-30T18:48:14.937Z,23.70
2019-03-30T18:50:45.787Z,23.77
2019-03-30T18:53:17.011Z,22.07
2019-03-30T18:55:49.678Z,23.23
2019-03-30T18:58:19.861Z,20.90
2019-03-30T19:00:49.960Z,26.17
2019-03-30T19:03:20.501Z,25.37
2019-03-30T19:05:50.584Z,29.17
2019-03-30T19:08:20.679Z,20.73
2019-03-30T19:10:50.803Z,24.23
2019-03-30T19:13:20.875Z,21.80
2019-03-30T19:15:52.955Z,23.43
2019-03-30T19:18:23.019Z,26.23
2019-03-30T19:20:53.083Z,21.60
2019-03-30T19:23:23.185Z,21.33
2019-03-30T19:25:53.264Z,21.30
2019-03-30T19:28:23.308Z,22.20
2019-03-30T19:30:53.407Z,21.83
2019-03-30T19:33:23.608Z,20.77
2019-03-30T19:35:53.758Z,22.90
2019-03-30T19:38:23.835Z,21.97
2019-03-30T19:40:53.944Z,22.90
2019-03-30T19:43:24.303Z,22.00
2019-03-30T19:45:54.503Z,22.70
2019-03-30T19:48:24.646Z,21.97
2019-03-30T19:50:54.725Z,23.80
2019-03-30T19:53:24.833Z,27.07
2019-03-30T19:55:54.897Z,24.63
2019-03-30T19:58:25.025Z,29.23
2019-03-30T20:00:55.074Z,28.77
2019-03-30T20:03:26.321Z,29.10
2019-03-30T20:05:59.369Z,28.27
2019-03-30T20:08:29.424Z,30.57
2019-03-30T20:10:59.477Z,29.90
2019-03-30T20:13:29.874Z,29.80
2019-03-30T20:16:00.069Z,38.40
2019-03-30T20:18:30.152Z,33.80
2019-03-30T20:21:00.240Z,34.03
2019-03-30T20:23:30.364Z,29.40
2019-03-30T20:26:00.435Z,34.50
2019-03-30T20:28:30.532Z,30.33
2019-03-30T20:31:00.612Z,30.83
2019-03-30T20:33:30.679Z,30.07
2019-03-30T20:36:00.723Z,28.17
2019-03-30T20:38:30.826Z,35.40
2019-03-30T20:41:00.937Z,35.97
2019-03-30T20:43:31.005Z,31.03
2019-03-30T20:46:01.242Z,35.40
2019-03-30T20:48:31.302Z,35.23
2019-03-30T20:51:01.337Z,34.13
2019-03-30T20:53:31.411Z,33.93
2019-03-30T20:56:01.469Z,41.67
2019-03-30T20:58:31.495Z,41.70
2019-03-30T21:01:01.639Z,40.67
2019-03-30T21:03:31.855Z,37.23
2019-03-30T21:06:02.057Z,35.67
2019-03-30T21:08:32.153Z,41.33
2019-03-30T21:11:02.213Z,40.67
2019-03-30T21:13:32.270Z,43.40
2019-03-30T21:16:02.450Z,35.13
2019-03-30T21:18:32.479Z,33.20
2019-03-30T21:21:02.540Z,29.27
2019-03-30T21:23:32.630Z,33.20
2019-03-30T21:26:02.743Z,34.17
2019-03-30T21:28:32.835Z,33.07
2019-03-30T21:31:03.057Z,32.13
2019-03-30T21:33:33.110Z,30.17
2019-03-30T21:36:03.272Z,35.27
2019-03-30T21:38:33.311Z,37.13
2019-03-30T21:41:03.415Z,31.97
2019-03-30T21:43:33.491Z,33.00
2019-03-30T21:46:03.511Z,38.40
2019-03-30T21:48:33.558Z,36.47
2019-03-30T21:51:03.649Z,31.03
2019-03-30T21:53:33.695Z,33.57
2019-03-30T21:56:03.731Z,33.90
2019-03-30T21:58:33.754Z,33.90
2019-03-30T22:01:03.842Z,32.73
2019-03-30T22:03:33.918Z,36.90
2019-03-30T22:06:04.091Z,32.63
2019-03-30T22:08:34.249Z,34.13
2019-03-30T22:11:04.306Z,30.30
2019-03-30T22:13:34.399Z,30.20
2019-03-30T22:16:04.428Z,29.40
2019-03-30T22:18:34.549Z,32.47
2019-03-30T22:21:04.581Z,32.93
2019-03-30T22:23:36.865Z,29.57
2019-03-30T22:26:06.898Z,32.20
2019-03-30T22:28:36.950Z,30.67
2019-03-30T22:31:07.000Z,34.57
2019-03-30T22:33:37.039Z,31.33
2019-03-30T22:36:07.075Z,33.63
2019-03-30T22:38:37.127Z,32.27
2019-03-30T22:41:07.198Z,32.13
2019-03-30T22:43:37.234Z,34.47
2019-03-30T22:46:07.830Z,34.03
2019-03-30T22:48:37.918Z,32.83
2019-03-30T22:51:07.955Z,34.13
2019-03-30T22:53:38.016Z,31.53
2019-03-30T22:56:08.073Z,32.97
2019-03-30T22:58:38.108Z,36.10
2019-03-30T23:01:13.533Z,31.70
2019-03-30T23:03:43.545Z,30.70
2019-03-30T23:06:13.548Z,31.40
2019-03-30T23:08:43.557Z,31.90
2019-03-30T23:11:13.614Z,28.47
2019-03-30T23:13:43.657Z,30.87
2019-03-30T23:16:13.669Z,33.27
2019-03-30T23:18:45.488Z,38.07
2019-03-30T23:21:15.657Z,31.00
2019-03-30T23:23:45.650Z,31.57
2019-03-30T23:26:15.678Z,31.93
2019-03-30T23:28:45.694Z,33.37
2019-03-30T23:31:15.735Z,33.20
2019-03-30T23:33:45.800Z,31.63
2019-03-30T23:36:15.841Z,37.43
2019-03-30T23:38:45.822Z,30.87
2019-03-30T23:41:15.840Z,27.77
2019-03-30T23:43:45.863Z,29.70
2019-03-30T23:46:15.896Z,33.17
2019-03-30T23:48:45.934Z,32.53
2019-03-30T23:51:16.035Z,27.60
2019-03-30T23:53:46.047Z,32.43
2019-03-30T23:56:25.866Z,31.93
2019-03-30T23:58:56.244Z,29.10
